sensor_id;sensor_type;location;lat;lon;timestamp;temperature;humidity
17236;DHT22;8734;59.272;17.780;2023-03-01T00:01:36;-0.80;99.90
17236;DHT22;8734;59.272;17.780;2023-03-01T00:04:04;-0.80;99.90
17236;DHT22;8734;59.272;17.780;2023-03-01T00:06:32;-0.80;99.90
17236;DHT22;8734;59.272;17.780;2023-03-01T00:09:01;-0.80;99.90
17236;DHT22;8734;59.272;17.780;2023-03-01T00:11:31;-0.70;99.90
17236;DHT22;8734;59.272;17.780;2023-03-01T00:14:00;-0.60;99.90
17236;DHT22;8734;59.272;17.780;2023-03-01T00:16:36;-0.40;99.90
17236;DHT22;8734;59.272;17.780;2023-03-01T00:19:06;-0.30;99.90
17236;DHT22;8734;59.272;17.780;2023-03-01T00:21:35;-0.30;99.90
17236;DHT22;8734;59.272;17.780;2023-03-01T00:24:03;-0.20;99.90
17236;DHT22;8734;59.272;17.780;2023-03-01T00:26:32;-0.10;99.90
17236;DHT22;8734;59.272;17.780;2023-03-01T00:29:01;0.10;99.90
17236;DHT22;8734;59.272;17.780;2023-03-01T00:31:30;0.40;99.90
17236;DHT22;8734;59.272;17.780;2023-03-01T00:34:03;0.70;99.90
17236;DHT22;8734;59.272;17.780;2023-03-01T00:36:33;0.80;99.90
17236;DHT22;8734;59.272;17.780;2023-03-01T00:39:03;0.70;99.90
17236;DHT22;8734;59.272;17.780;2023-03-01T00:41:31;0.60;99.90
17236;DHT22;8734;59.272;17.780;2023-03-01T00:44:03;0.40;99.90
17236;DHT22;8734;59.272;17.780;2023-03-01T00:46:31;0.50;99.90
17236;DHT22;8734;59.272;17.780;2023-03-01T00:49:03;0.50;99.90
17236;DHT22;8734;59.272;17.780;2023-03-01T00:51:31;0.50;99.90
17236;DHT22;8734;59.272;17.780;2023-03-01T00:54:01;0.50;99.90
17236;DHT22;8734;59.272;17.780;2023-03-01T00:56:30;0.50;99.90
17236;DHT22;8734;59.272;17.780;2023-03-01T00:58:59;0.60;99.90
17236;DHT22;8734;59.272;17.780;2023-03-01T01:01:29;0.50;99.90
17236;DHT22;8734;59.272;17.780;2023-03-01T01:03:59;0.50;99.90
17236;DHT22;8734;59.272;17.780;2023-03-01T01:06:32;0.40;99.90
17236;DHT22;8734;59.272;17.780;2023-03-01T01:09:00;0.40;99.90
17236;DHT22;8734;59.272;17.780;2023-03-01T01:11:29;0.40;99.90
17236;DHT22;8734;59.272;17.780;2023-03-01T01:13:58;0.40;99.90
17236;DHT22;8734;59.272;17.780;2023-03-01T01:16:27;0.40;99.90
17236;DHT22;8734;59.272;17.780;2023-03-01T01:18:57;0.40;99.90
17236;DHT22;8734;59.272;17.780;2023-03-01T01:21:26;0.30;99.90
17236;DHT22;8734;59.272;17.780;2023-03-01T01:23:57;0.20;99.90
17236;DHT22;8734;59.272;17.780;2023-03-01T01:26:28;0.10;99.90
17236;DHT22;8734;59.272;17.780;2023-03-01T01:28:58;-0.10;99.90
17236;DHT22;8734;59.272;17.780;2023-03-01T01:31:26;-0.20;99.90
17236;DHT22;8734;59.272;17.780;2023-03-01T01:33:56;-0.30;99.90
17236;DHT22;8734;59.272;17.780;2023-03-01T01:36:24;-0.40;99.90
17236;DHT22;8734;59.272;17.780;2023-03-01T01:38:53;-0.50;99.90
17236;DHT22;8734;59.272;17.780;2023-03-01T01:41:23;-0.50;99.90
17236;DHT22;8734;59.272;17.780;2023-03-01T01:44:11;-0.60;99.90
17236;DHT22;8734;59.272;17.780;2023-03-01T01:46:42;-0.50;99.90
17236;DHT22;8734;59.272;17.780;2023-03-01T01:49:19;-0.40;99.90
17236;DHT22;8734;59.272;17.780;2023-03-01T01:51:57;-0.30;99.90
17236;DHT22;8734;59.272;17.780;2023-03-01T01:54:29;-0.40;99.90
17236;DHT22;8734;59.272;17.780;2023-03-01T01:57:03;-0.30;99.90
17236;DHT22;8734;59.272;17.780;2023-03-01T01:59:34;-0.30;99.90
17236;DHT22;8734;59.272;17.780;2023-03-01T02:02:03;-0.40;99.90
17236;DHT22;8734;59.272;17.780;2023-03-01T02:04:32;-0.40;99.90
17236;DHT22;8734;59.272;17.780;2023-03-01T02:07:04;-0.50;99.90
17236;DHT22;8734;59.272;17.780;2023-03-01T02:09:35;-0.50;99.90
17236;DHT22;8734;59.272;17.780;2023-03-01T02:12:05;-0.60;99.90
17236;DHT22;8734;59.272;17.780;2023-03-01T02:14:34;-0.70;99.90
17236;DHT22;8734;59.272;17.780;2023-03-01T02:17:02;-0.80;99.90
17236;DHT22;8734;59.272;17.780;2023-03-01T02:19:43;-0.80;99.90
17236;DHT22;8734;59.272;17.780;2023-03-01T02:22:20;-0.90;99.90
17236;DHT22;8734;59.272;17.780;2023-03-01T02:24:59;-0.80;99.90
17236;DHT22;8734;59.272;17.780;2023-03-01T02:27:36;-0.80;99.90
17236;DHT22;8734;59.272;17.780;2023-03-01T02:30:10;-0.90;99.90
17236;DHT22;8734;59.272;17.780;2023-03-01T02:32:40;-1.00;99.90
17236;DHT22;8734;59.272;17.780;2023-03-01T02:35:10;-1.00;99.90
17236;DHT22;8734;59.272;17.780;2023-03-01T02:37:41;-1.00;99.90
17236;DHT22;8734;59.272;17.780;2023-03-01T02:40:15;-0.90;99.90
17236;DHT22;8734;59.272;17.780;2023-03-01T02:42:49;-0.90;99.90
17236;DHT22;8734;59.272;17.780;2023-03-01T02:45:21;-0.80;99.90
17236;DHT22;8734;59.272;17.780;2023-03-01T02:47:50;-0.80;99.90
17236;DHT22;8734;59.272;17.780;2023-03-01T02:50:41;-0.80;99.90
17236;DHT22;8734;59.272;17.780;2023-03-01T02:53:19;-0.70;99.90
17236;DHT22;8734;59.272;17.780;2023-03-01T02:55:50;-0.70;99.90
17236;DHT22;8734;59.272;17.780;2023-03-01T02:58:19;-0.70;99.90
17236;DHT22;8734;59.272;17.780;2023-03-01T03:00:49;-0.70;99.90
17236;DHT22;8734;59.272;17.780;2023-03-01T03:03:19;-0.70;99.90
17236;DHT22;8734;59.272;17.780;2023-03-01T03:05:48;-0.80;99.90
17236;DHT22;8734;59.272;17.780;2023-03-01T03:08:17;-0.80;99.90
17236;DHT22;8734;59.272;17.780;2023-03-01T03:10:51;-0.80;99.90
17236;DHT22;8734;59.272;17.780;2023-03-01T03:13:19;-0.90;99.90
17236;DHT22;8734;59.272;17.780;2023-03-01T03:15:50;-0.80;99.90
17236;DHT22;8734;59.272;17.780;2023-03-01T03:18:19;-0.80;99.90
17236;DHT22;8734;59.272;17.780;2023-03-01T03:20:48;-0.80;99.90
17236;DHT22;8734;59.272;17.780;2023-03-01T03:23:20;-0.70;99.90
17236;DHT22;8734;59.272;17.780;2023-03-01T03:25:49;-0.50;99.90
17236;DHT22;8734;59.272;17.780;2023-03-01T03:28:18;-0.30;99.90
17236;DHT22;8734;59.272;17.780;2023-03-01T03:30:46;-0.20;99.90
17236;DHT22;8734;59.272;17.780;2023-03-01T03:33:16;-0.20;99.90
17236;DHT22;8734;59.272;17.780;2023-03-01T03:35:47;-0.10;99.90
17236;DHT22;8734;59.272;17.780;2023-03-01T03:38:17;0.00;99.90
17236;DHT22;8734;59.272;17.780;2023-03-01T03:40:50;0.00;99.90
17236;DHT22;8734;59.272;17.780;2023-03-01T03:43:21;0.00;99.90
17236;DHT22;8734;59.272;17.780;2023-03-01T03:45:50;-0.10;99.90
17236;DHT22;8734;59.272;17.780;2023-03-01T03:48:20;-0.20;99.90
17236;DHT22;8734;59.272;17.780;2023-03-01T03:50:51;-0.40;99.90
17236;DHT22;8734;59.272;17.780;2023-03-01T03:53:20;-0.50;99.90
17236;DHT22;8734;59.272;17.780;2023-03-01T03:55:49;-0.60;99.90
17236;DHT22;8734;59.272;17.780;2023-03-01T03:58:20;-0.60;99.90
17236;DHT22;8734;59.272;17.780;2023-03-01T04:00:50;-0.70;99.90
17236;DHT22;8734;59.272;17.780;2023-03-01T04:03:20;-0.70;99.90
17236;DHT22;8734;59.272;17.780;2023-03-01T04:05:49;-0.70;99.90
17236;DHT22;8734;59.272;17.780;2023-03-01T04:08:18;-0.80;99.90
17236;DHT22;8734;59.272;17.780;2023-03-01T04:10:50;-0.80;99.90
17236;DHT22;8734;59.272;17.780;2023-03-01T04:13:21;-0.80;99.90
17236;DHT22;8734;59.272;17.780;2023-03-01T04:15:50;-0.90;99.90
17236;DHT22;8734;59.272;17.780;2023-03-01T04:18:21;-0.90;99.90
17236;DHT22;8734;59.272;17.780;2023-03-01T04:20:52;-0.90;99.90
17236;DHT22;8734;59.272;17.780;2023-03-01T04:23:22;-0.90;99.90
17236;DHT22;8734;59.272;17.780;2023-03-01T04:25:53;-0.90;99.90
17236;DHT22;8734;59.272;17.780;2023-03-01T04:28:23;-0.90;99.90
17236;DHT22;8734;59.272;17.780;2023-03-01T04:30:53;-0.70;99.90
17236;DHT22;8734;59.272;17.780;2023-03-01T04:33:24;-0.70;99.90
17236;DHT22;8734;59.272;17.780;2023-03-01T04:35:53;-0.60;99.90
17236;DHT22;8734;59.272;17.780;2023-03-01T04:38:21;-0.60;99.90
17236;DHT22;8734;59.272;17.780;2023-03-01T04:40:50;-0.60;99.90
17236;DHT22;8734;59.272;17.780;2023-03-01T04:43:18;-0.60;99.90
17236;DHT22;8734;59.272;17.780;2023-03-01T04:45:46;-0.60;99.90
17236;DHT22;8734;59.272;17.780;2023-03-01T04:48:15;-0.60;99.90
17236;DHT22;8734;59.272;17.780;2023-03-01T04:50:44;-0.60;99.90
17236;DHT22;8734;59.272;17.780;2023-03-01T04:53:13;-0.60;99.90
17236;DHT22;8734;59.272;17.780;2023-03-01T04:55:41;-0.60;99.90
17236;DHT22;8734;59.272;17.780;2023-03-01T04:58:10;-0.60;99.90
17236;DHT22;8734;59.272;17.780;2023-03-01T05:00:38;-0.60;99.90
17236;DHT22;8734;59.272;17.780;2023-03-01T05:03:07;-0.60;99.90
17236;DHT22;8734;59.272;17.780;2023-03-01T05:05:37;-0.60;99.90
17236;DHT22;8734;59.272;17.780;2023-03-01T05:08:08;-0.70;99.90
17236;DHT22;8734;59.272;17.780;2023-03-01T05:10:45;-0.70;99.90
17236;DHT22;8734;59.272;17.780;2023-03-01T05:13:14;-0.70;99.90
17236;DHT22;8734;59.272;17.780;2023-03-01T05:15:48;-0.70;99.90
17236;DHT22;8734;59.272;17.780;2023-03-01T05:18:16;-0.80;99.90
17236;DHT22;8734;59.272;17.780;2023-03-01T05:20:45;-0.80;99.90
17236;DHT22;8734;59.272;17.780;2023-03-01T05:23:15;-0.90;99.90
17236;DHT22;8734;59.272;17.780;2023-03-01T05:25:43;-1.00;99.90
17236;DHT22;8734;59.272;17.780;2023-03-01T05:28:12;-1.10;99.90
17236;DHT22;8734;59.272;17.780;2023-03-01T05:30:41;-1.10;99.90
17236;DHT22;8734;59.272;17.780;2023-03-01T05:33:09;-1.20;99.90
17236;DHT22;8734;59.272;17.780;2023-03-01T05:35:41;-1.20;99.90
17236;DHT22;8734;59.272;17.780;2023-03-01T05:38:11;-1.20;99.90
17236;DHT22;8734;59.272;17.780;2023-03-01T05:40:42;-1.10;99.90
17236;DHT22;8734;59.272;17.780;2023-03-01T05:43:11;-1.10;99.90
17236;DHT22;8734;59.272;17.780;2023-03-01T05:45:40;-1.00;99.90
17236;DHT22;8734;59.272;17.780;2023-03-01T05:48:10;-0.90;99.90
17236;DHT22;8734;59.272;17.780;2023-03-01T05:50:41;-0.90;99.90
17236;DHT22;8734;59.272;17.780;2023-03-01T05:53:11;-0.90;99.90
17236;DHT22;8734;59.272;17.780;2023-03-01T05:55:42;-0.90;99.90
17236;DHT22;8734;59.272;17.780;2023-03-01T05:58:15;-0.90;99.90
17236;DHT22;8734;59.272;17.780;2023-03-01T06:00:45;-0.80;99.90
17236;DHT22;8734;59.272;17.780;2023-03-01T06:03:14;-0.90;99.90
17236;DHT22;8734;59.272;17.780;2023-03-01T06:05:43;-0.90;99.90
17236;DHT22;8734;59.272;17.780;2023-03-01T06:08:12;-0.80;99.90
17236;DHT22;8734;59.272;17.780;2023-03-01T06:10:42;-0.70;99.90
17236;DHT22;8734;59.272;17.780;2023-03-01T06:13:10;-0.70;99.90
17236;DHT22;8734;59.272;17.780;2023-03-01T06:15:39;-0.60;99.90
17236;DHT22;8734;59.272;17.780;2023-03-01T06:18:08;-0.60;99.90
17236;DHT22;8734;59.272;17.780;2023-03-01T06:20:36;-0.60;99.90
17236;DHT22;8734;59.272;17.780;2023-03-01T06:23:04;-0.50;99.90
17236;DHT22;8734;59.272;17.780;2023-03-01T06:25:35;-0.40;99.90
17236;DHT22;8734;59.272;17.780;2023-03-01T06:28:06;-0.40;99.90
17236;DHT22;8734;59.272;17.780;2023-03-01T06:30:34;-0.40;99.90
17236;DHT22;8734;59.272;17.780;2023-03-01T06:33:02;-0.40;99.90
17236;DHT22;8734;59.272;17.780;2023-03-01T06:35:32;-0.50;99.90
17236;DHT22;8734;59.272;17.780;2023-03-01T06:38:01;-0.50;99.90
17236;DHT22;8734;59.272;17.780;2023-03-01T06:40:30;-0.50;99.90
17236;DHT22;8734;59.272;17.780;2023-03-01T06:42:59;-0.50;99.90
17236;DHT22;8734;59.272;17.780;2023-03-01T06:45:29;-0.40;99.90
17236;DHT22;8734;59.272;17.780;2023-03-01T06:48:04;-0.30;99.90
17236;DHT22;8734;59.272;17.780;2023-03-01T06:50:34;-0.30;99.90
17236;DHT22;8734;59.272;17.780;2023-03-01T06:53:02;-0.30;99.90
17236;DHT22;8734;59.272;17.780;2023-03-01T06:55:31;-0.30;99.90
17236;DHT22;8734;59.272;17.780;2023-03-01T06:58:02;-0.30;99.90
17236;DHT22;8734;59.272;17.780;2023-03-01T07:00:32;-0.30;99.90
17236;DHT22;8734;59.272;17.780;2023-03-01T07:03:01;-0.30;99.90
17236;DHT22;8734;59.272;17.780;2023-03-01T07:05:30;-0.20;99.90
17236;DHT22;8734;59.272;17.780;2023-03-01T07:07:58;-0.20;99.90
17236;DHT22;8734;59.272;17.780;2023-03-01T07:10:27;-0.10;99.90
17236;DHT22;8734;59.272;17.780;2023-03-01T07:12:55;0.00;99.90
17236;DHT22;8734;59.272;17.780;2023-03-01T07:15:25;0.10;99.90
17236;DHT22;8734;59.272;17.780;2023-03-01T07:17:56;0.20;99.90
17236;DHT22;8734;59.272;17.780;2023-03-01T07:20:25;0.30;99.90
17236;DHT22;8734;59.272;17.780;2023-03-01T07:22:54;0.30;99.90
17236;DHT22;8734;59.272;17.780;2023-03-01T07:25:23;0.40;99.90
17236;DHT22;8734;59.272;17.780;2023-03-01T07:27:53;0.30;99.90
17236;DHT22;8734;59.272;17.780;2023-03-01T07:30:21;0.30;99.90
17236;DHT22;8734;59.272;17.780;2023-03-01T07:32:54;0.40;99.90
17236;DHT22;8734;59.272;17.780;2023-03-01T07:35:23;0.50;99.90
17236;DHT22;8734;59.272;17.780;2023-03-01T07:37:53;0.50;99.90
17236;DHT22;8734;59.272;17.780;2023-03-01T07:40:21;0.60;99.90
17236;DHT22;8734;59.272;17.780;2023-03-01T07:42:49;0.70;99.90
17236;DHT22;8734;59.272;17.780;2023-03-01T07:45:23;0.80;99.90
17236;DHT22;8734;59.272;17.780;2023-03-01T07:47:52;0.90;99.90
17236;DHT22;8734;59.272;17.780;2023-03-01T07:50:21;0.90;99.90
17236;DHT22;8734;59.272;17.780;2023-03-01T07:52:50;1.00;99.90
17236;DHT22;8734;59.272;17.780;2023-03-01T07:55:18;1.00;99.90
17236;DHT22;8734;59.272;17.780;2023-03-01T07:57:47;1.20;99.90
17236;DHT22;8734;59.272;17.780;2023-03-01T08:00:15;1.20;99.90
17236;DHT22;8734;59.272;17.780;2023-03-01T08:02:44;1.30;99.90
17236;DHT22;8734;59.272;17.780;2023-03-01T08:05:12;1.40;99.90
17236;DHT22;8734;59.272;17.780;2023-03-01T08:07:42;1.50;99.90
17236;DHT22;8734;59.272;17.780;2023-03-01T08:10:10;1.70;99.90
17236;DHT22;8734;59.272;17.780;2023-03-01T08:12:39;1.90;99.90
17236;DHT22;8734;59.272;17.780;2023-03-01T08:15:08;2.00;99.90
17236;DHT22;8734;59.272;17.780;2023-03-01T08:17:37;2.00;99.90
17236;DHT22;8734;59.272;17.780;2023-03-01T08:20:05;2.20;99.90
17236;DHT22;8734;59.272;17.780;2023-03-01T08:22:35;2.20;99.90
17236;DHT22;8734;59.272;17.780;2023-03-01T08:25:05;2.20;99.90
17236;DHT22;8734;59.272;17.780;2023-03-01T08:27:33;2.30;99.90
17236;DHT22;8734;59.272;17.780;2023-03-01T08:30:02;2.40;99.90
17236;DHT22;8734;59.272;17.780;2023-03-01T08:32:35;2.40;99.90
17236;DHT22;8734;59.272;17.780;2023-03-01T08:35:05;2.50;99.90
17236;DHT22;8734;59.272;17.780;2023-03-01T08:37:33;2.60;99.90
17236;DHT22;8734;59.272;17.780;2023-03-01T08:40:01;2.80;99.90
17236;DHT22;8734;59.272;17.780;2023-03-01T08:42:32;2.90;99.90
17236;DHT22;8734;59.272;17.780;2023-03-01T08:45:01;3.10;99.90
17236;DHT22;8734;59.272;17.780;2023-03-01T08:47:29;3.40;99.90
17236;DHT22;8734;59.272;17.780;2023-03-01T08:49:57;3.80;99.90
17236;DHT22;8734;59.272;17.780;2023-03-01T08:52:25;4.30;99.90
17236;DHT22;8734;59.272;17.780;2023-03-01T08:54:54;4.60;99.90
17236;DHT22;8734;59.272;17.780;2023-03-01T08:57:23;4.80;99.90
17236;DHT22;8734;59.272;17.780;2023-03-01T08:59:53;4.90;99.90
17236;DHT22;8734;59.272;17.780;2023-03-01T09:02:22;4.80;99.90
17236;DHT22;8734;59.272;17.780;2023-03-01T09:04:52;5.10;99.90
17236;DHT22;8734;59.272;17.780;2023-03-01T09:07:20;5.60;99.90
17236;DHT22;8734;59.272;17.780;2023-03-01T09:09:48;6.30;99.90
17236;DHT22;8734;59.272;17.780;2023-03-01T09:12:20;6.90;99.90
17236;DHT22;8734;59.272;17.780;2023-03-01T09:14:49;7.00;99.90
17236;DHT22;8734;59.272;17.780;2023-03-01T09:17:18;7.40;99.90
17236;DHT22;8734;59.272;17.780;2023-03-01T09:19:48;7.70;99.90
17236;DHT22;8734;59.272;17.780;2023-03-01T09:22:17;8.60;99.90
17236;DHT22;8734;59.272;17.780;2023-03-01T09:24:45;9.10;99.90
17236;DHT22;8734;59.272;17.780;2023-03-01T09:27:14;9.80;99.90
17236;DHT22;8734;59.272;17.780;2023-03-01T09:29:45;10.60;99.90
17236;DHT22;8734;59.272;17.780;2023-03-01T09:32:13;11.00;99.90
17236;DHT22;8734;59.272;17.780;2023-03-01T09:34:44;11.70;99.90
17236;DHT22;8734;59.272;17.780;2023-03-01T09:37:32;12.30;99.90
17236;DHT22;8734;59.272;17.780;2023-03-01T09:40:01;12.70;99.90
17236;DHT22;8734;59.272;17.780;2023-03-01T09:42:32;13.00;99.90
17236;DHT22;8734;59.272;17.780;2023-03-01T09:45:05;13.30;99.90
17236;DHT22;8734;59.272;17.780;2023-03-01T09:47:36;13.60;99.90
17236;DHT22;8734;59.272;17.780;2023-03-01T09:50:09;14.30;99.90
17236;DHT22;8734;59.272;17.780;2023-03-01T09:52:42;14.30;99.90
17236;DHT22;8734;59.272;17.780;2023-03-01T09:55:13;14.60;99.90
17236;DHT22;8734;59.272;17.780;2023-03-01T09:57:47;14.50;99.90
17236;DHT22;8734;59.272;17.780;2023-03-01T10:00:23;13.90;99.90
17236;DHT22;8734;59.272;17.780;2023-03-01T10:02:58;13.30;99.90
17236;DHT22;8734;59.272;17.780;2023-03-01T10:05:39;13.10;99.90
17236;DHT22;8734;59.272;17.780;2023-03-01T10:08:33;12.90;99.90
17236;DHT22;8734;59.272;17.780;2023-03-01T10:11:04;13.10;99.90
17236;DHT22;8734;59.272;17.780;2023-03-01T10:13:41;13.50;99.90
17236;DHT22;8734;59.272;17.780;2023-03-01T10:16:14;14.20;99.90
17236;DHT22;8734;59.272;17.780;2023-03-01T10:18:47;14.90;99.90
17236;DHT22;8734;59.272;17.780;2023-03-01T10:21:21;14.40;99.90
17236;DHT22;8734;59.272;17.780;2023-03-01T10:23:51;14.60;99.90
17236;DHT22;8734;59.272;17.780;2023-03-01T10:29:28;15.30;99.90
17236;DHT22;8734;59.272;17.780;2023-03-01T10:31:58;15.20;99.90
17236;DHT22;8734;59.272;17.780;2023-03-01T10:34:29;15.80;99.90
17236;DHT22;8734;59.272;17.780;2023-03-01T10:37:08;15.00;99.90
17236;DHT22;8734;59.272;17.780;2023-03-01T10:39:37;13.80;99.90
17236;DHT22;8734;59.272;17.780;2023-03-01T10:42:26;13.30;99.90
17236;DHT22;8734;59.272;17.780;2023-03-01T10:44:58;12.80;99.90
17236;DHT22;8734;59.272;17.780;2023-03-01T10:47:38;13.00;99.90
17236;DHT22;8734;59.272;17.780;2023-03-01T10:50:23;13.50;99.90
17236;DHT22;8734;59.272;17.780;2023-03-01T10:53:04;14.30;99.90
17236;DHT22;8734;59.272;17.780;2023-03-01T10:55:35;14.40;99.90
17236;DHT22;8734;59.272;17.780;2023-03-01T10:58:15;14.10;99.90
17236;DHT22;8734;59.272;17.780;2023-03-01T11:00:49;14.40;99.90
17236;DHT22;8734;59.272;17.780;2023-03-01T11:03:21;12.80;99.90
17236;DHT22;8734;59.272;17.780;2023-03-01T11:05:55;10.80;99.90
17236;DHT22;8734;59.272;17.780;2023-03-01T11:08:39;9.40;99.90
17236;DHT22;8734;59.272;17.780;2023-03-01T11:11:21;8.50;99.90
17236;DHT22;8734;59.272;17.780;2023-03-01T11:13:56;7.80;99.90
17236;DHT22;8734;59.272;17.780;2023-03-01T11:16:35;7.40;99.90
17236;DHT22;8734;59.272;17.780;2023-03-01T11:19:15;7.20;99.90
17236;DHT22;8734;59.272;17.780;2023-03-01T11:21:53;6.90;99.90
17236;DHT22;8734;59.272;17.780;2023-03-01T11:24:29;6.80;99.90
17236;DHT22;8734;59.272;17.780;2023-03-01T11:27:01;6.80;99.90
17236;DHT22;8734;59.272;17.780;2023-03-01T11:29:34;6.70;99.90
17236;DHT22;8734;59.272;17.780;2023-03-01T11:32:15;6.60;99.90
17236;DHT22;8734;59.272;17.780;2023-03-01T11:34:47;6.60;99.90
17236;DHT22;8734;59.272;17.780;2023-03-01T11:37:26;6.50;99.90
17236;DHT22;8734;59.272;17.780;2023-03-01T11:40:05;6.50;99.90
17236;DHT22;8734;59.272;17.780;2023-03-01T11:42:54;6.40;99.90
17236;DHT22;8734;59.272;17.780;2023-03-01T11:45:27;6.40;99.90
17236;DHT22;8734;59.272;17.780;2023-03-01T11:48:12;6.40;99.90
17236;DHT22;8734;59.272;17.780;2023-03-01T11:50:47;6.50;99.90
17236;DHT22;8734;59.272;17.780;2023-03-01T11:53:28;6.50;99.90
17236;DHT22;8734;59.272;17.780;2023-03-01T11:56:05;6.60;99.90
17236;DHT22;8734;59.272;17.780;2023-03-01T11:58:54;6.50;99.90
17236;DHT22;8734;59.272;17.780;2023-03-01T12:01:32;6.50;99.90
17236;DHT22;8734;59.272;17.780;2023-03-01T12:07:23;6.50;99.90
17236;DHT22;8734;59.272;17.780;2023-03-01T12:10:12;6.60;99.90
17236;DHT22;8734;59.272;17.780;2023-03-01T12:12:52;6.60;99.90
17236;DHT22;8734;59.272;17.780;2023-03-01T12:15:49;6.60;99.90
17236;DHT22;8734;59.272;17.780;2023-03-01T12:18:49;6.70;99.90
17236;DHT22;8734;59.272;17.780;2023-03-01T12:21:28;6.70;99.90
17236;DHT22;8734;59.272;17.780;2023-03-01T12:24:24;6.80;99.90
17236;DHT22;8734;59.272;17.780;2023-03-01T12:27:07;6.80;99.90
17236;DHT22;8734;59.272;17.780;2023-03-01T12:29:42;6.80;99.90
17236;DHT22;8734;59.272;17.780;2023-03-01T12:32:25;6.80;99.90
17236;DHT22;8734;59.272;17.780;2023-03-01T12:35:21;6.90;99.90
17236;DHT22;8734;59.272;17.780;2023-03-01T12:37:54;6.90;99.90
17236;DHT22;8734;59.272;17.780;2023-03-01T12:40:41;6.90;99.90
17236;DHT22;8734;59.272;17.780;2023-03-01T12:43:22;7.00;99.90
17236;DHT22;8734;59.272;17.780;2023-03-01T12:46:07;7.00;99.90
17236;DHT22;8734;59.272;17.780;2023-03-01T12:48:43;7.10;99.90
17236;DHT22;8734;59.272;17.780;2023-03-01T12:51:18;7.10;99.90
17236;DHT22;8734;59.272;17.780;2023-03-01T12:53:49;7.00;99.90
17236;DHT22;8734;59.272;17.780;2023-03-01T12:56:19;6.90;99.90
17236;DHT22;8734;59.272;17.780;2023-03-01T12:58:56;6.90;99.90
17236;DHT22;8734;59.272;17.780;2023-03-01T13:01:41;7.00;99.90
17236;DHT22;8734;59.272;17.780;2023-03-01T13:04:20;7.00;99.90
17236;DHT22;8734;59.272;17.780;2023-03-01T13:06:58;6.90;99.90
17236;DHT22;8734;59.272;17.780;2023-03-01T13:09:37;6.90;99.90
17236;DHT22;8734;59.272;17.780;2023-03-01T13:15:27;6.90;99.90
17236;DHT22;8734;59.272;17.780;2023-03-01T13:17:59;6.90;99.90
17236;DHT22;8734;59.272;17.780;2023-03-01T13:20:33;7.00;99.90
17236;DHT22;8734;59.272;17.780;2023-03-01T13:23:04;7.00;99.90
17236;DHT22;8734;59.272;17.780;2023-03-01T13:25:33;7.20;99.90
17236;DHT22;8734;59.272;17.780;2023-03-01T13:34:57;7.30;99.90
17236;DHT22;8734;59.272;17.780;2023-03-01T13:37:29;7.20;99.90
17236;DHT22;8734;59.272;17.780;2023-03-01T13:40:00;7.20;99.90
17236;DHT22;8734;59.272;17.780;2023-03-01T13:42:43;7.30;99.90
17236;DHT22;8734;59.272;17.780;2023-03-01T13:45:36;7.30;99.90
17236;DHT22;8734;59.272;17.780;2023-03-01T13:48:10;7.30;99.90
17236;DHT22;8734;59.272;17.780;2023-03-01T13:50:46;7.40;99.90
17236;DHT22;8734;59.272;17.780;2023-03-01T13:53:17;7.40;99.90
17236;DHT22;8734;59.272;17.780;2023-03-01T13:55:48;7.40;99.90
17236;DHT22;8734;59.272;17.780;2023-03-01T13:58:23;7.40;99.90
17236;DHT22;8734;59.272;17.780;2023-03-01T14:00:56;7.40;99.90
17236;DHT22;8734;59.272;17.780;2023-03-01T14:03:25;7.40;99.90
17236;DHT22;8734;59.272;17.780;2023-03-01T14:06:04;7.40;99.90
17236;DHT22;8734;59.272;17.780;2023-03-01T14:08:43;7.40;99.90
17236;DHT22;8734;59.272;17.780;2023-03-01T14:11:43;7.40;99.90
17236;DHT22;8734;59.272;17.780;2023-03-01T14:14:34;7.40;99.90
17236;DHT22;8734;59.272;17.780;2023-03-01T14:17:26;7.40;99.90
17236;DHT22;8734;59.272;17.780;2023-03-01T14:19:59;7.50;99.90
17236;DHT22;8734;59.272;17.780;2023-03-01T14:22:31;7.50;99.90
17236;DHT22;8734;59.272;17.780;2023-03-01T14:25:04;7.60;99.90
17236;DHT22;8734;59.272;17.780;2023-03-01T14:27:36;7.70;99.90
17236;DHT22;8734;59.272;17.780;2023-03-01T14:30:13;7.80;99.90
17236;DHT22;8734;59.272;17.780;2023-03-01T14:32:42;7.90;99.90
17236;DHT22;8734;59.272;17.780;2023-03-01T14:35:20;7.90;99.90
17236;DHT22;8734;59.272;17.780;2023-03-01T14:37:51;7.80;99.90
17236;DHT22;8734;59.272;17.780;2023-03-01T14:40:24;7.80;99.90
17236;DHT22;8734;59.272;17.780;2023-03-01T14:42:54;7.70;99.90
17236;DHT22;8734;59.272;17.780;2023-03-01T14:45:25;7.70;99.90
17236;DHT22;8734;59.272;17.780;2023-03-01T14:47:54;7.70;99.90
17236;DHT22;8734;59.272;17.780;2023-03-01T14:50:25;7.60;99.90
17236;DHT22;8734;59.272;17.780;2023-03-01T14:52:58;7.50;99.90
17236;DHT22;8734;59.272;17.780;2023-03-01T14:55:31;7.50;99.90
17236;DHT22;8734;59.272;17.780;2023-03-01T14:58:04;7.40;99.90
17236;DHT22;8734;59.272;17.780;2023-03-01T15:00:34;7.50;99.90
17236;DHT22;8734;59.272;17.780;2023-03-01T15:03:07;7.40;99.90
17236;DHT22;8734;59.272;17.780;2023-03-01T15:05:42;7.30;99.90
17236;DHT22;8734;59.272;17.780;2023-03-01T15:08:18;7.30;99.90
17236;DHT22;8734;59.272;17.780;2023-03-01T15:10:58;7.20;99.90
17236;DHT22;8734;59.272;17.780;2023-03-01T15:13:30;7.10;99.90
17236;DHT22;8734;59.272;17.780;2023-03-01T15:16:08;7.10;99.90
17236;DHT22;8734;59.272;17.780;2023-03-01T15:18:38;7.10;99.90
17236;DHT22;8734;59.272;17.780;2023-03-01T15:21:17;7.10;99.90
17236;DHT22;8734;59.272;17.780;2023-03-01T15:23:50;7.00;99.90
17236;DHT22;8734;59.272;17.780;2023-03-01T15:26:28;7.00;99.90
17236;DHT22;8734;59.272;17.780;2023-03-01T15:29:01;7.00;99.90
17236;DHT22;8734;59.272;17.780;2023-03-01T15:31:32;6.90;99.90
17236;DHT22;8734;59.272;17.780;2023-03-01T15:34:10;6.80;99.90
17236;DHT22;8734;59.272;17.780;2023-03-01T15:36:44;6.80;99.90
17236;DHT22;8734;59.272;17.780;2023-03-01T15:39:35;6.70;99.90
17236;DHT22;8734;59.272;17.780;2023-03-01T15:42:07;6.60;99.90
17236;DHT22;8734;59.272;17.780;2023-03-01T15:44:39;6.60;99.90
17236;DHT22;8734;59.272;17.780;2023-03-01T15:47:27;6.60;99.90
17236;DHT22;8734;59.272;17.780;2023-03-01T15:49:58;6.60;99.90
17236;DHT22;8734;59.272;17.780;2023-03-01T15:52:29;6.60;99.90
17236;DHT22;8734;59.272;17.780;2023-03-01T15:55:05;6.60;99.90
17236;DHT22;8734;59.272;17.780;2023-03-01T15:57:34;6.60;99.90
17236;DHT22;8734;59.272;17.780;2023-03-01T16:00:03;6.60;99.90
17236;DHT22;8734;59.272;17.780;2023-03-01T16:02:38;6.60;99.90
17236;DHT22;8734;59.272;17.780;2023-03-01T16:05:16;6.50;99.90
17236;DHT22;8734;59.272;17.780;2023-03-01T16:07:46;6.50;99.90
17236;DHT22;8734;59.272;17.780;2023-03-01T16:10:16;6.50;99.90
17236;DHT22;8734;59.272;17.780;2023-03-01T16:12:45;6.50;99.90
17236;DHT22;8734;59.272;17.780;2023-03-01T16:15:17;6.40;99.90
17236;DHT22;8734;59.272;17.780;2023-03-01T16:17:46;6.40;99.90
17236;DHT22;8734;59.272;17.780;2023-03-01T16:20:15;6.40;99.90
17236;DHT22;8734;59.272;17.780;2023-03-01T16:22:54;6.30;99.90
17236;DHT22;8734;59.272;17.780;2023-03-01T16:25:24;6.30;99.90
17236;DHT22;8734;59.272;17.780;2023-03-01T16:27:52;6.20;99.90
17236;DHT22;8734;59.272;17.780;2023-03-01T16:30:22;6.20;99.90